Time;durP1;ratioP1;P1;durP2;ratioP2;P2;SDS_P1;SDS_P2;PMS_P1;PMS_P2;Temp;Humidity;BMP_temperature;BMP_pressure;BME280_temperature;BME280_humidity;BME280_pressure;Samples;Min_cycle;Max_cycle;Signal;HPM_P1;HPM_P2
2023/03/09 00:00:34;;;;;;;17.73;7.05;;;307.90;2304.00;;;;;;5053698;28;20454;-78
2023/03/09 00:03:00;;;;;;;16.35;7.60;;;308.00;2304.00;;;;;;5053554;28;20430;-78
2023/03/09 00:05:26;;;;;;;12.70;6.00;;;307.90;2304.00;;;;;;5052910;28;20033;-76
2023/03/09 00:07:55;;;;;;;9.80;4.88;;;308.00;2304.00;;;;;;5051723;28;20124;-77
2023/03/09 00:10:22;;;;;;;10.25;4.95;;;308.00;2304.00;;;;;;5054657;28;20104;-77
2023/03/09 00:12:48;;;;;;;9.68;5.03;;;308.00;2304.00;;;;;;5052632;28;20028;-77
2023/03/09 00:15:13;;;;;;;7.00;3.05;;;308.00;2304.00;;;;;;5054224;28;20057;-78
2023/03/09 00:17:39;;;;;;;9.43;4.20;;;308.00;2304.00;;;;;;5052979;28;20420;-79
2023/03/09 00:20:18;;;;;;;9.15;6.03;;;308.10;2304.00;;;;;;5052666;28;20078;-79
2023/03/09 00:22:52;;;;;;;10.02;5.43;;;308.00;2304.00;;;;;;5053203;28;20379;-79
2023/03/09 00:25:21;;;;;;;7.63;3.88;;;308.10;2304.00;;;;;;5052920;28;20386;-76
2023/03/09 00:27:49;;;;;;;12.02;7.10;;;308.10;2304.00;;;;;;5053855;28;20083;-76
2023/03/09 00:30:16;;;;;;;10.25;4.72;;;308.00;2304.00;;;;;;5052655;28;20021;-76
2023/03/09 00:32:42;;;;;;;14.10;6.85;;;308.00;2304.00;;;;;;5054027;28;20082;-77
2023/03/09 00:35:08;;;;;;;7.88;4.68;;;308.00;2304.00;;;;;;5052598;28;20111;-78
2023/03/09 00:37:35;;;;;;;11.98;6.20;;;307.90;2304.00;;;;;;5052553;28;20036;-76
2023/03/09 00:40:01;;;;;;;11.85;6.97;;;307.90;2304.00;;;;;;5053773;28;20025;-78
2023/03/09 00:42:27;;;;;;;13.60;6.95;;;307.80;2304.00;;;;;;5053863;28;20044;-78
2023/03/09 00:44:53;;;;;;;11.80;7.10;;;307.80;2304.00;;;;;;5052318;28;20032;-78
2023/03/09 00:47:29;;;;;;;17.58;10.25;;;307.80;2304.00;;;;;;5069062;28;20029;-77
2023/03/09 00:49:55;;;;;;;27.58;14.70;;;307.80;2304.00;;;;;;5052584;28;20029;-78
2023/03/09 00:52:21;;;;;;;25.15;15.45;;;307.50;2304.00;;;;;;5053309;28;20025;-78
2023/03/09 00:54:46;;;;;;;31.27;18.60;;;307.60;2304.00;;;;;;5052223;28;20063;-77
2023/03/09 00:57:12;;;;;;;37.10;21.35;;;307.60;2304.00;;;;;;5052362;28;20025;-76
2023/03/09 00:59:38;;;;;;;32.80;19.73;;;307.50;2304.00;;;;;;5052351;28;20079;-78
2023/03/09 01:02:04;;;;;;;29.48;18.38;;;307.40;2304.00;;;;;;5052129;28;20024;-78
2023/03/09 01:04:29;;;;;;;26.40;16.33;;;307.30;2304.00;;;;;;5052053;28;20036;-76
2023/03/09 01:06:55;;;;;;;35.47;18.98;;;307.40;2304.00;;;;;;5052356;28;20060;-76
2023/03/09 01:09:21;;;;;;;45.17;22.70;;;307.30;2304.00;;;;;;5051882;28;20087;-77
2023/03/09 01:11:47;;;;;;;43.28;24.60;;;307.30;2304.00;;;;;;5053468;28;20021;-76
2023/03/09 01:14:13;;;;;;;52.58;28.23;;;307.30;2304.00;;;;;;5036843;28;20034;-77
2023/03/09 01:16:38;;;;;;;52.47;26.92;;;307.20;2304.00;;;;;;5032019;28;20033;-78
2023/03/09 01:19:04;;;;;;;47.78;27.00;;;282.50;2278.40;;;;;;5030965;28;20053;-78
2023/03/09 01:21:30;;;;;;;46.28;26.35;;;307.20;2304.00;;;;;;5033496;28;20118;-76
2023/03/09 01:23:56;;;;;;;42.40;27.52;;;307.20;2304.00;;;;;;5032070;28;20696;-78
2023/03/09 01:26:21;;;;;;;19.65;13.98;;;307.20;2304.00;;;;;;5033392;28;20109;-78
2023/03/09 01:28:47;;;;;;;18.83;11.85;;;282.40;2278.40;;;;;;5046684;28;20099;-78
2023/03/09 01:31:15;;;;;;;35.88;17.95;;;282.20;2278.40;;;;;;5052797;28;20110;-78
2023/03/09 01:33:41;;;;;;;27.10;17.10;;;282.30;2278.40;;;;;;5051107;28;20025;-76
2023/03/09 01:36:11;;;;;;;29.45;18.05;;;282.30;2278.40;;;;;;5051853;28;20022;-77
2023/03/09 01:38:37;;;;;;;30.40;18.67;;;282.20;2278.40;;;;;;5051951;28;20047;-77
2023/03/09 01:41:03;;;;;;;22.10;14.02;;;282.20;2278.40;;;;;;5052955;28;20449;-76
2023/03/09 01:43:39;;;;;;;25.77;14.90;;;282.20;2278.40;;;;;;5051693;28;20103;-78
2023/03/09 01:46:20;;;;;;;22.75;14.77;;;282.20;2278.40;;;;;;5053287;28;20088;-77
2023/03/09 01:49:20;;;;;;;24.05;15.73;;;282.20;2278.40;;;;;;5051880;28;20032;-77
2023/03/09 01:51:57;;;;;;;23.92;14.77;;;282.10;2278.40;;;;;;5051791;28;20021;-75
2023/03/09 01:54:46;;;;;;;25.73;16.15;;;282.10;2278.40;;;;;;5051610;28;20059;-77
2023/03/09 01:57:21;;;;;;;23.80;15.60;;;282.10;2278.40;;;;;;5040481;28;20450;-76
2023/03/09 01:59:50;;;;;;;19.00;13.25;;;282.10;2278.40;;;;;;5051787;28;20029;-76
2023/03/09 02:02:17;;;;;;;17.85;12.13;;;282.20;2278.40;;;;;;5052681;28;20479;-76
2023/03/09 02:04:52;;;;;;;18.45;12.13;;;282.00;2278.40;;;;;;5052443;28;20044;-78
2023/03/09 02:07:22;;;;;;;20.38;12.95;;;282.00;2278.40;;;;;;5051680;28;20390;-76
2023/03/09 02:09:57;;;;;;;16.25;10.50;;;282.00;2278.40;;;;;;5051462;28;20041;-76
2023/03/09 02:12:24;;;;;;;20.50;13.02;;;282.00;2278.40;;;;;;5051556;28;20063;-78
2023/03/09 02:14:51;;;;;;;27.73;15.45;;;281.80;2278.40;;;;;;5051476;28;20037;-77
2023/03/09 02:17:17;;;;;;;33.10;16.45;;;282.00;2278.40;;;;;;5052825;28;20040;-78
2023/03/09 02:20:39;;;;;;;16.33;10.15;;;281.90;2278.40;;;;;;5052335;28;20021;-78
2023/03/09 02:23:24;;;;;;;17.35;11.10;;;281.90;2278.40;;;;;;4994147;28;20129;-79
2023/03/09 02:26:06;;;;;;;26.30;16.60;;;282.00;2278.40;;;;;;5010443;28;20045;-78
2023/03/09 02:28:33;;;;;;;29.45;16.92;;;281.90;2278.40;;;;;;5040313;28;20171;-78
2023/03/09 02:31:00;;;;;;;28.13;16.95;;;281.70;2278.40;;;;;;5054954;28;20033;-77
2023/03/09 02:33:28;;;;;;;23.60;14.57;;;281.70;2278.40;;;;;;5054823;28;20028;-78
2023/03/09 02:35:55;;;;;;;22.73;14.25;;;281.70;2278.40;;;;;;5054853;28;20490;-77
2023/03/09 02:38:21;;;;;;;20.33;12.68;;;281.70;2278.40;;;;;;5054985;28;20024;-79
2023/03/09 02:40:48;;;;;;;19.65;12.80;;;281.70;2278.40;;;;;;5055977;28;20121;-79
2023/03/09 02:43:18;;;;;;;22.85;14.02;;;282.00;2278.40;;;;;;5054826;28;20025;-78
2023/03/09 02:45:45;;;;;;;22.65;13.07;;;281.80;2278.40;;;;;;5054686;28;20064;-79
2023/03/09 02:48:11;;;;;;;20.67;12.25;;;281.70;2278.40;;;;;;5054777;28;20025;-79
2023/03/09 02:50:36;;;;;;;23.92;14.00;;;256.90;2252.80;;;;;;5054218;28;20029;-78
2023/03/09 02:53:02;;;;;;;25.38;16.55;;;256.90;2252.80;;;;;;5055323;28;20021;-78
2023/03/09 02:55:28;;;;;;;33.22;19.58;;;256.70;2252.80;;;;;;5054861;28;20029;-79
2023/03/09 02:57:54;;;;;;;28.88;16.75;;;256.80;2252.80;;;;;;5054769;28;20055;-78
2023/03/09 03:00:23;;;;;;;16.55;10.27;;;256.80;2252.80;;;;;;5055622;28;20025;-79
2023/03/09 03:02:49;;;;;;;17.90;9.23;;;256.60;2252.80;;;;;;5055772;28;20044;-78
2023/03/09 03:05:15;;;;;;;20.80;11.65;;;256.70;2252.80;;;;;;5055573;28;20506;-77
2023/03/09 03:07:40;;;;;;;25.95;14.60;;;256.60;2252.80;;;;;;5054198;28;20036;-77
2023/03/09 03:10:07;;;;;;;32.97;20.92;;;256.70;2252.80;;;;;;5054139;28;20548;-77
2023/03/09 03:12:32;;;;;;;18.83;11.02;;;256.60;2252.80;;;;;;5055204;28;20418;-79
2023/03/09 03:14:58;;;;;;;18.30;12.43;;;256.40;2252.80;;;;;;5054001;28;20032;-78
2023/03/09 03:17:24;;;;;;;19.63;12.20;;;256.40;2252.80;;;;;;5054193;28;20025;-77
2023/03/09 03:19:51;;;;;;;17.60;10.80;;;256.30;2252.80;;;;;;5054150;28;20032;-77
2023/03/09 03:22:17;;;;;;;27.40;15.80;;;256.50;2252.80;;;;;;5053963;28;20467;-79
2023/03/09 03:24:43;;;;;;;32.45;17.20;;;256.50;2252.80;;;;;;5053835;28;20037;-77
2023/03/09 03:27:08;;;;;;;28.40;15.98;;;256.60;2252.80;;;;;;5054149;28;20021;-78
2023/03/09 03:29:34;;;;;;;21.25;11.30;;;256.50;2252.80;;;;;;5053763;28;20446;-77
2023/03/09 03:32:00;;;;;;;17.63;11.23;;;256.50;2252.80;;;;;;5053874;28;20035;-77
2023/03/09 03:34:26;;;;;;;20.52;10.90;;;256.50;2252.80;;;;;;5053775;28;20029;-77
2023/03/09 03:36:51;;;;;;;21.77;11.88;;;256.40;2252.80;;;;;;5053675;28;20087;-78
2023/03/09 03:39:17;;;;;;;28.63;18.38;;;256.50;2252.80;;;;;;5053763;28;20024;-77
2023/03/09 03:41:43;;;;;;;28.15;18.60;;;256.50;2252.80;;;;;;5053344;28;20452;-77
2023/03/09 03:44:08;;;;;;;26.60;14.30;;;256.40;2252.80;;;;;;5055196;28;20033;-77
2023/03/09 03:46:34;;;;;;;23.77;14.95;;;256.40;2252.80;;;;;;5055184;28;20041;-77
2023/03/09 03:49:00;;;;;;;25.25;16.27;;;256.50;2252.80;;;;;;5054465;28;20021;-78
2023/03/09 03:51:26;;;;;;;27.30;20.55;;;256.40;2252.80;;;;;;5053666;28;20029;-77
2023/03/09 03:53:51;;;;;;;26.55;17.08;;;256.50;2252.80;;;;;;5053399;28;20446;-77
2023/03/09 03:56:17;;;;;;;27.02;16.33;;;256.40;2252.80;;;;;;5053405;28;20116;-78
2023/03/09 03:58:43;;;;;;;28.38;16.63;;;256.30;2252.80;;;;;;5053503;28;20056;-78
2023/03/09 04:01:09;;;;;;;23.58;14.63;;;256.40;2252.80;;;;;;5054594;28;20036;-78
2023/03/09 04:03:34;;;;;;;30.17;19.15;;;256.30;2252.80;;;;;;5054481;28;20035;-77
2023/03/09 04:06:02;;;;;;;36.05;20.80;;;256.30;2252.80;;;;;;5053215;28;20544;-79
2023/03/09 04:08:28;;;;;;;28.13;18.77;;;256.30;2252.80;;;;;;5054315;28;20082;-77
2023/03/09 04:10:54;;;;;;;29.45;18.40;;;256.30;2252.80;;;;;;5053083;28;20075;-78
2023/03/09 04:13:20;;;;;;;30.70;18.75;;;256.30;2252.80;;;;;;5053161;28;20421;-78
2023/03/09 04:15:46;;;;;;;30.23;18.88;;;256.30;2252.80;;;;;;5054315;28;20056;-78
2023/03/09 04:18:12;;;;;;;33.75;21.58;;;256.50;2252.80;;;;;;5054166;28;20024;-78
2023/03/09 04:20:40;;;;;;;29.83;20.10;;;256.30;2252.80;;;;;;5052799;28;20025;-78
2023/03/09 04:23:06;;;;;;;32.22;19.48;;;256.30;2252.80;;;;;;5054640;28;20029;-78
2023/03/09 04:25:32;;;;;;;28.98;18.02;;;256.40;2252.80;;;;;;5052671;28;20045;-78
2023/03/09 04:27:58;;;;;;;31.13;18.67;;;256.50;2252.80;;;;;;5053867;28;20470;-77
2023/03/09 04:30:24;;;;;;;29.77;18.30;;;256.50;2252.80;;;;;;5052820;28;20021;-77
2023/03/09 04:32:50;;;;;;;30.08;18.02;;;256.50;2252.80;;;;;;5052633;28;20025;-79
2023/03/09 04:35:16;;;;;;;24.92;14.90;;;256.50;2252.80;;;;;;5052641;28;20075;-78
2023/03/09 04:37:45;;;;;;;18.35;10.55;;;256.60;2252.80;;;;;;5052487;28;20032;-78
2023/03/09 04:40:12;;;;;;;17.30;9.80;;;256.60;2252.80;;;;;;5052626;28;20028;-77
2023/03/09 04:42:38;;;;;;;44.53;39.50;;;256.60;2252.80;;;;;;5053866;28;20093;-78
2023/03/09 04:45:04;;;;;;;55.33;43.83;;;256.50;2252.80;;;;;;5052399;28;20541;-77
2023/03/09 04:47:30;;;;;;;42.47;31.33;;;256.50;2252.80;;;;;;5052573;28;20025;-78
2023/03/09 04:49:55;;;;;;;44.88;28.90;;;256.50;2252.80;;;;;;5052593;28;20025;-77
2023/03/09 04:52:21;;;;;;;44.03;27.88;;;256.40;2252.80;;;;;;5050952;28;20040;-77
2023/03/09 04:54:48;;;;;;;41.08;26.10;;;256.40;2252.80;;;;;;5052488;28;20024;-77
2023/03/09 04:57:14;;;;;;;46.47;25.20;;;256.30;2252.80;;;;;;5052368;28;20044;-78
2023/03/09 04:59:40;;;;;;;45.85;25.60;;;256.50;2252.80;;;;;;5051242;28;20028;-79
2023/03/09 05:02:06;;;;;;;39.30;20.70;;;256.40;2252.80;;;;;;5052071;28;20033;-77
2023/03/09 05:04:32;;;;;;;23.08;17.17;;;256.10;2252.80;;;;;;5053043;28;20033;-79
2023/03/09 05:06:58;;;;;;;25.50;19.83;;;256.20;2252.80;;;;;;5052131;28;20083;-79
2023/03/09 05:09:23;;;;;;;36.20;24.88;;;256.20;2252.80;;;;;;5051960;28;20049;-77
2023/03/09 05:11:51;;;;;;;43.33;26.20;;;256.10;2252.80;;;;;;5052239;28;20393;-78
2023/03/09 05:14:18;;;;;;;42.72;25.80;;;256.10;2252.80;;;;;;5051992;28;20083;-78
2023/03/09 05:16:45;;;;;;;38.95;24.70;;;256.10;2252.80;;;;;;5051835;28;20071;-78
2023/03/09 05:19:11;;;;;;;41.08;21.75;;;256.10;2252.80;;;;;;5052239;28;20025;-79
2023/03/09 05:21:37;;;;;;;44.83;27.40;;;256.10;2252.80;;;;;;5051819;28;20025;-77
2023/03/09 05:24:03;;;;;;;49.10;30.20;;;256.10;2252.80;;;;;;5052006;28;20032;-79
2023/03/09 05:26:29;;;;;;;72.43;34.70;;;256.20;2252.80;;;;;;5051672;28;20108;-79
2023/03/09 05:28:55;;;;;;;36.50;24.17;;;256.10;2252.80;;;;;;5051869;28;20128;-77
2023/03/09 05:31:21;;;;;;;46.95;27.13;;;256.20;2252.80;;;;;;5050218;28;20033;-77
2023/03/09 05:33:47;;;;;;;44.50;28.75;;;256.20;2252.80;;;;;;5033100;28;20029;-78
2023/03/09 05:36:18;;;;;;;55.35;33.85;;;256.30;2252.80;;;;;;5031987;28;20498;-79
2023/03/09 05:38:44;;;;;;;58.53;36.30;;;256.30;2252.80;;;;;;5031948;28;20116;-79
2023/03/09 05:41:10;;;;;;;63.95;35.15;;;256.30;2252.80;;;;;;5031849;28;20493;-78
2023/03/09 05:43:36;;;;;;;60.58;32.58;;;256.20;2252.80;;;;;;5032026;28;20360;-77
2023/03/09 05:46:03;;;;;;;48.13;35.45;;;256.20;2252.80;;;;;;5031902;28;20044;-78
2023/03/09 05:48:29;;;;;;;46.28;30.95;;;256.30;2252.80;;;;;;5031913;28;20187;-78
2023/03/09 05:50:58;;;;;;;50.97;31.98;;;256.30;2252.80;;;;;;5031931;28;20529;-78
2023/03/09 05:53:24;;;;;;;34.33;21.30;;;256.40;2252.80;;;;;;5032011;28;20022;-78
2023/03/09 05:55:53;;;;;;;30.35;17.73;;;256.40;2252.80;;;;;;5031754;28;20057;-79
2023/03/09 05:58:19;;;;;;;51.55;26.70;;;256.50;2252.80;;;;;;5037668;28;20502;-77
2023/03/09 06:00:45;;;;;;;36.60;22.85;;;256.60;2252.80;;;;;;5051442;28;20033;-79
2023/03/09 06:03:11;;;;;;;40.95;27.05;;;256.60;2252.80;;;;;;5051603;28;20021;-80
2023/03/09 06:05:37;;;;;;;39.13;25.75;;;256.60;2252.80;;;;;;5055049;28;20033;-78
2023/03/09 06:08:03;;;;;;;50.67;32.25;;;256.80;2252.80;;;;;;5055304;28;20114;-79
2023/03/09 06:10:29;;;;;;;31.58;20.38;;;256.90;2252.80;;;;;;5055413;28;20051;-78
2023/03/09 06:12:54;;;;;;;28.50;19.55;;;256.90;2252.80;;;;;;5055536;28;20506;-77
2023/03/09 06:15:20;;;;;;;41.85;27.65;;;281.60;2278.40;;;;;;5055094;28;20025;-78
2023/03/09 06:17:46;;;;;;;43.08;28.35;;;281.70;2278.40;;;;;;5055231;28;20081;-79
2023/03/09 06:20:12;;;;;;;38.97;25.48;;;281.70;2278.40;;;;;;5055219;28;20501;-78
2023/03/09 06:22:40;;;;;;;28.17;18.17;;;281.80;2278.40;;;;;;5055053;28;20032;-79
2023/03/09 06:25:07;;;;;;;24.85;15.18;;;281.90;2278.40;;;;;;5055210;28;20444;-78
2023/03/09 06:27:36;;;;;;;22.88;16.05;;;282.10;2278.40;;;;;;5053934;28;20067;-78
2023/03/09 06:30:02;;;;;;;31.50;19.35;;;282.10;2278.40;;;;;;5054211;28;20451;-80
2023/03/09 06:32:32;;;;;;;42.10;25.23;;;282.20;2278.40;;;;;;5055362;28;20052;-80
2023/03/09 06:34:57;;;;;;;42.67;27.60;;;282.30;2278.40;;;;;;5055098;28;20029;-78
2023/03/09 06:37:23;;;;;;;44.70;29.95;;;282.40;2278.40;;;;;;5055215;28;20478;-81
2023/03/09 06:39:49;;;;;;;45.72;31.13;;;282.40;2278.40;;;;;;5056316;28;20040;-80
2023/03/09 06:42:14;;;;;;;47.75;31.42;;;282.50;2278.40;;;;;;5054847;28;20025;-79
2023/03/09 06:44:42;;;;;;;54.58;37.28;;;307.20;2304.00;;;;;;5054684;28;20033;-78
2023/03/09 06:47:08;;;;;;;38.90;27.13;;;307.20;2304.00;;;;;;5054962;28;20036;-79
2023/03/09 06:49:34;;;;;;;39.65;26.48;;;307.30;2304.00;;;;;;5055843;28;20027;-78
2023/03/09 06:52:00;;;;;;;36.15;24.45;;;307.40;2304.00;;;;;;5056005;28;20100;-79
2023/03/09 06:54:26;;;;;;;32.60;21.65;;;307.50;2304.00;;;;;;5054795;28;20128;-79
2023/03/09 06:56:52;;;;;;;31.70;18.25;;;307.60;2304.00;;;;;;5055769;28;20032;-79
2023/03/09 06:59:18;;;;;;;14.35;7.70;;;307.60;2304.00;;;;;;5079903;28;20021;-78
2023/03/09 07:01:43;;;;;;;16.48;12.60;;;308.10;2304.00;;;;;;5080320;28;20010;-79
2023/03/09 07:04:09;;;;;;;20.05;8.75;;;332.90;2329.60;;;;;;5079925;28;20052;-78
2023/03/09 07:06:35;;;;;;;10.57;6.50;;;333.10;2329.60;;;;;;5068861;28;20120;-77
2023/03/09 07:09:01;;;;;;;9.95;5.80;;;333.30;2329.60;;;;;;5055852;28;20522;-78
2023/03/09 07:11:26;;;;;;;10.18;7.30;;;333.40;2329.60;;;;;;5056245;28;20474;-78
2023/03/09 07:13:52;;;;;;;7.50;4.90;;;333.50;2329.60;;;;;;5056027;28;20029;-78
2023/03/09 07:16:18;;;;;;;7.65;5.10;;;333.70;2329.60;;;;;;5055551;28;20025;-79
2023/03/09 07:18:44;;;;;;;4.97;3.55;;;358.40;2329.60;;;;;;5054645;28;20032;-77
2023/03/09 07:21:10;;;;;;;8.90;6.40;;;358.50;2329.60;;;;;;5055542;28;20025;-79
2023/03/09 07:23:36;;;;;;;6.47;3.63;;;358.50;2329.60;;;;;;5054074;28;20033;-77
2023/03/09 07:26:04;;;;;;;6.18;3.50;;;358.60;2329.60;;;;;;5053879;28;20037;-77
2023/03/09 07:28:30;;;;;;;6.45;4.65;;;358.70;2329.60;;;;;;5053794;28;20027;-78
2023/03/09 07:30:56;;;;;;;9.63;4.80;;;358.70;2329.60;;;;;;5053957;28;20033;-77
2023/03/09 07:33:22;;;;;;;7.97;5.80;;;358.70;2329.60;;;;;;5053825;28;20040;-79
2023/03/09 07:35:48;;;;;;;7.72;3.95;;;358.80;2329.60;;;;;;5053574;28;20119;-79
2023/03/09 07:38:14;;;;;;;5.25;3.05;;;358.80;2329.60;;;;;;5053791;28;20025;-78
2023/03/09 07:40:40;;;;;;;7.63;4.45;;;358.80;2329.60;;;;;;5053546;28;20100;-77
2023/03/09 07:43:06;;;;;;;8.15;4.50;;;358.80;2329.60;;;;;;5054001;28;20043;-78
2023/03/09 07:45:32;;;;;;;8.35;6.00;;;358.90;2329.60;;;;;;5053487;28;20037;-77
2023/03/09 07:47:57;;;;;;;9.20;4.15;;;358.90;2329.60;;;;;;5053532;28;20029;-77
2023/03/09 07:50:23;;;;;;;9.63;5.85;;;359.00;2329.60;;;;;;5045580;28;20033;-79
2023/03/09 07:52:49;;;;;;;5.53;3.80;;;359.00;2329.60;;;;;;5033304;28;20033;-78
2023/03/09 07:55:15;;;;;;;8.70;5.70;;;359.00;2329.60;;;;;;5032395;28;20041;-77
2023/03/09 07:57:42;;;;;;;9.02;5.82;;;359.10;2329.60;;;;;;5033890;28;20049;-78
2023/03/09 08:00:12;;;;;;;9.38;4.85;;;359.20;2329.60;;;;;;5053331;28;20124;-78
2023/03/09 08:02:41;;;;;;;9.98;4.63;;;359.30;2329.60;;;;;;5053813;28;20029;-78
2023/03/09 08:05:09;;;;;;;10.43;4.95;;;384.00;2329.60;;;;;;5052918;28;20037;-78
2023/03/09 08:07:35;;;;;;;14.00;3.97;;;384.20;2329.60;;;;;;5053216;28;20032;-77
2023/03/09 08:10:02;;;;;;;7.15;3.38;;;384.20;2329.60;;;;;;5052999;28;20546;-83
2023/03/09 08:12:27;;;;;;;10.30;4.85;;;384.20;2329.60;;;;;;5052935;28;20021;-78
2023/03/09 08:14:53;;;;;;;14.95;4.40;;;384.30;2329.60;;;;;;5053899;28;20074;-78
2023/03/09 08:17:19;;;;;;;10.07;4.30;;;384.40;2329.60;;;;;;5053171;28;20448;-79
2023/03/09 08:19:44;;;;;;;8.32;4.38;;;384.40;2329.60;;;;;;5052901;28;20072;-79
2023/03/09 08:22:10;;;;;;;20.05;6.50;;;384.50;2329.60;;;;;;5052979;28;20027;-79
2023/03/09 08:24:36;;;;;;;7.88;5.05;;;384.70;2329.60;;;;;;5052920;28;20037;-77
2023/03/09 08:27:02;;;;;;;9.25;3.58;;;384.70;2329.60;;;;;;5053696;28;20084;-77
2023/03/09 08:29:28;;;;;;;6.00;3.60;;;384.90;2329.60;;;;;;5052241;28;20025;-78
2023/03/09 08:31:54;;;;;;;7.22;3.92;;;409.60;2355.20;;;;;;5052897;28;20029;-80
2023/03/09 08:34:20;;;;;;;11.02;3.88;;;409.70;2355.20;;;;;;5052775;28;20033;-77
2023/03/09 08:36:46;;;;;;;6.38;4.20;;;409.70;2355.20;;;;;;5053864;28;20029;-77
2023/03/09 08:39:12;;;;;;;6.38;3.90;;;409.80;2355.20;;;;;;5054204;28;20025;-77
2023/03/09 08:41:38;;;;;;;5.57;2.95;;;409.90;2355.20;;;;;;5053978;28;20394;-79
2023/03/09 08:44:04;;;;;;;5.53;3.00;;;409.90;2355.20;;;;;;5052387;28;20032;-76
2023/03/09 08:46:29;;;;;;;6.93;4.32;;;410.00;2329.60;;;;;;5053935;28;20032;-78
2023/03/09 08:48:56;;;;;;;7.15;3.30;;;410.00;2329.60;;;;;;5053853;28;20542;-79
2023/03/09 08:51:22;;;;;;;7.82;3.95;;;410.10;2329.60;;;;;;5050643;28;20036;-76
2023/03/09 08:53:48;;;;;;;19.05;13.70;;;410.00;2329.60;;;;;;5053419;28;20029;-78
2023/03/09 08:56:14;;;;;;;10.23;6.82;;;410.30;2329.60;;;;;;5052925;28;20033;-80
2023/03/09 08:58:40;;;;;;;9.73;5.38;;;410.30;2304.00;;;;;;5053805;28;20025;-79
2023/03/09 09:01:08;;;;;;;6.78;4.10;;;410.50;2304.00;;;;;;5052213;28;20025;-79
2023/03/09 09:03:34;;;;;;;6.57;3.13;;;410.50;2278.40;;;;;;5052064;28;20033;-77
2023/03/09 09:06:06;;;;;;;9.85;5.57;;;410.50;2278.40;;;;;;5052181;28;20025;-78
2023/03/09 09:08:32;;;;;;;5.57;3.50;;;435.20;2278.40;;;;;;5051889;28;20041;-79
2023/03/09 09:10:58;;;;;;;9.07;5.10;;;435.30;2278.40;;;;;;5051917;28;20116;-76
2023/03/09 09:13:24;;;;;;;5.38;3.50;;;435.40;2278.40;;;;;;5052188;28;20056;-78
2023/03/09 09:15:54;;;;;;;6.55;3.95;;;435.50;2252.80;;;;;;5052083;28;20048;-78
2023/03/09 09:18:21;;;;;;;7.07;2.90;;;435.50;2252.80;;;;;;5047422;28;20208;-74
2023/03/09 09:20:47;;;;;;;9.85;3.95;;;435.50;2252.80;;;;;;5035089;28;20063;-75
2023/03/09 09:23:14;;;;;;;5.72;3.78;;;435.50;2252.80;;;;;;5053325;28;20055;-79
2023/03/09 09:25:39;;;;;;;5.22;3.10;;;435.60;2252.80;;;;;;5042474;28;20465;-76
2023/03/09 09:28:05;;;;;;;12.23;8.93;;;435.60;2227.20;;;;;;5031968;28;20036;-75
2023/03/09 09:30:32;;;;;;;7.40;3.45;;;435.80;2252.80;;;;;;5049767;28;20025;-75
2023/03/09 09:33:00;;;;;;;9.98;5.07;;;435.80;2227.20;;;;;;5036118;28;20075;-76
2023/03/09 09:35:26;;;;;;;6.70;3.20;;;435.90;2227.20;;;;;;5041647;28;20036;-76
2023/03/09 09:37:54;;;;;;;10.60;5.70;;;436.00;2227.20;;;;;;5043490;28;20360;-76
2023/03/09 09:40:20;;;;;;;9.07;3.58;;;436.10;2227.20;;;;;;5053735;28;20032;-75
2023/03/09 09:42:47;;;;;;;6.88;3.28;;;460.80;2227.20;;;;;;5052529;28;20024;-75
2023/03/09 09:45:35;;;;;;;30.17;19.15;;;460.80;2227.20;;;;;;5043768;28;20463;-75
2023/03/09 09:48:05;;;;;;;132.70;90.30;;;436.10;2227.20;;;;;;5056650;28;20029;-75
2023/03/09 09:50:56;;;;;;;38.28;27.52;;;436.00;2227.20;;;;;;5038728;28;20034;-75
2023/03/09 09:53:49;;;;;;;20.60;11.02;;;460.80;2252.80;;;;;;5033782;28;20040;-74
2023/03/09 09:56:21;;;;;;;14.50;5.72;;;436.10;2201.60;;;;;;5055434;28;20116;-75
2023/03/09 09:58:54;;;;;;;7.07;4.45;;;460.80;2227.20;;;;;;5040183;28;20085;-76
2023/03/09 10:01:29;;;;;;;9.13;4.72;;;460.90;2252.80;;;;;;5047673;28;20075;-78
2023/03/09 10:04:02;;;;;;;7.95;4.43;;;460.90;2252.80;;;;;;5047888;28;20029;-80
2023/03/09 10:06:28;;;;;;;13.15;4.15;;;461.00;2252.80;;;;;;5038721;28;20111;-79
2023/03/09 10:08:58;;;;;;;9.35;3.70;;;461.10;2252.80;;;;;;5050636;28;20049;-78
2023/03/09 10:11:44;;;;;;;10.50;4.28;;;461.10;2227.20;;;;;;5043631;28;20025;-79
2023/03/09 10:14:28;;;;;;;6.72;3.65;;;461.10;2227.20;;;;;;5054983;28;20028;-80
2023/03/09 10:16:56;;;;;;;10.68;3.85;;;461.20;2227.20;;;;;;5034943;28;20379;-80
2023/03/09 10:19:32;;;;;;;10.60;4.57;;;461.20;2227.20;;;;;;5043921;28;20028;-80
2023/03/09 10:22:03;;;;;;;9.15;5.45;;;461.20;2227.20;;;;;;5054874;28;20072;-77
2023/03/09 10:24:56;;;;;;;5.53;4.07;;;461.30;2201.60;;;;;;5038702;28;20315;-77
2023/03/09 10:27:56;;;;;;;4.60;2.72;;;461.30;2227.20;;;;;;5047654;28;20072;-77
2023/03/09 10:30:27;;;;;;;6.20;2.97;;;461.40;2201.60;;;;;;5052571;28;20108;-77
2023/03/09 10:32:57;;;;;;;3.80;2.38;;;461.60;2201.60;;;;;;5038744;28;20025;-76
2023/03/09 10:35:39;;;;;;;6.53;3.45;;;461.60;2176.00;;;;;;5054574;28;20592;-77
2023/03/09 10:38:14;;;;;;;5.80;3.00;;;461.70;2176.00;;;;;;5041833;28;20029;-77
2023/03/09 10:40:50;;;;;;;6.60;4.10;;;461.70;2176.00;;;;;;5052739;28;20082;-78
2023/03/09 10:43:28;;;;;;;6.82;4.40;;;486.40;2176.00;;;;;;5041569;28;20033;-77
2023/03/09 10:45:55;;;;;;;6.95;3.38;;;461.70;2176.00;;;;;;5054489;28;20045;-78
2023/03/09 10:48:24;;;;;;;7.07;4.60;;;461.70;2176.00;;;;;;5038477;28;20029;-78
2023/03/09 10:51:04;;;;;;;8.07;3.85;;;486.40;2176.00;;;;;;5036674;28;20086;-78
2023/03/09 10:53:35;;;;;;;7.05;4.30;;;486.40;2150.40;;;;;;5055478;28;20039;-78
2023/03/09 10:56:23;;;;;;;7.45;4.32;;;486.50;2150.40;;;;;;5040911;28;20447;-77
2023/03/09 10:59:03;;;;;;;9.43;3.55;;;486.50;2150.40;;;;;;5050842;28;20017;-76
2023/03/09 11:01:29;;;;;;;7.63;4.32;;;486.70;2124.80;;;;;;5042833;28;20031;-76
2023/03/09 11:03:55;;;;;;;8.00;3.78;;;486.80;2124.80;;;;;;5041893;28;20057;-76
2023/03/09 11:06:30;;;;;;;9.07;5.03;;;486.90;2124.80;;;;;;5050009;28;20122;-76
2023/03/09 11:08:59;;;;;;;6.63;3.22;;;486.80;2099.20;;;;;;5039371;28;20103;-75
2023/03/09 11:11:26;;;;;;;6.70;3.53;;;486.70;2099.20;;;;;;5053694;28;20035;-74
2023/03/09 11:13:53;;;;;;;5.05;2.97;;;486.80;2099.20;;;;;;5041280;28;20030;-75
2023/03/09 11:16:34;;;;;;;3.95;2.15;;;486.90;2099.20;;;;;;5050810;28;20120;-75
2023/03/09 11:19:14;;;;;;;7.07;3.53;;;486.80;2099.20;;;;;;5038762;28;20021;-76
2023/03/09 11:21:45;;;;;;;4.40;2.50;;;486.90;2073.60;;;;;;5053540;28;20104;-75
2023/03/09 11:24:14;;;;;;;4.75;3.08;;;486.80;2099.20;;;;;;5040233;28;20056;-77
2023/03/09 11:26:55;;;;;;;8.77;4.30;;;487.00;2099.20;;;;;;5050098;28;20021;-75
2023/03/09 11:29:45;;;;;;;9.73;7.45;;;;;;;;;;5041589;28;20059;-77
2023/03/09 11:32:12;;;;;;;13.57;9.52;;;512.10;2048.00;;;;;;5035518;28;20026;-75
2023/03/09 11:34:41;;;;;;;9.88;8.15;;;512.30;2022.40;;;;;;5051153;28;20032;-76
2023/03/09 11:37:23;;;;;;;9.23;5.60;;;512.60;2022.40;;;;;;5040255;28;20467;-74
2023/03/09 11:39:52;;;;;;;5.85;3.75;;;;;;;;;;5041660;28;20079;-75
2023/03/09 11:42:23;;;;;;;8.40;4.60;;;;;;;;;;5033104;28;20049;-75
2023/03/09 11:44:49;;;;;;;5.07;3.25;;;537.90;1996.80;;;;;;5052987;28;20120;-76
2023/03/09 11:47:28;;;;;;;9.23;4.00;;;538.00;1971.20;;;;;;5046109;28;20433;-75
2023/03/09 11:50:01;;;;;;;6.40;3.42;;;537.70;1996.80;;;;;;5045101;28;20033;-75
2023/03/09 11:52:34;;;;;;;8.68;5.57;;;537.80;1996.80;;;;;;5051792;28;20478;-77
2023/03/09 11:55:08;;;;;;;7.40;4.38;;;537.80;1996.80;;;;;;5047112;28;20034;-76
2023/03/09 11:57:36;;;;;;;10.65;7.90;;;512.80;1996.80;;;;;;5041213;28;20032;-77
2023/03/09 12:00:08;;;;;;;6.45;3.17;;;512.90;1996.80;;;;;;5067221;28;20029;-77
2023/03/09 12:02:46;;;;;;;5.40;3.67;;;512.50;1996.80;;;;;;5052125;28;20021;-76
2023/03/09 12:05:14;;;;;;;5.22;3.13;;;512.50;1996.80;;;;;;5045170;28;20056;-77
2023/03/09 12:08:21;;;;;;;8.77;4.35;;;512.20;2022.40;;;;;;5044177;28;20430;-77
2023/03/09 12:10:56;;;;;;;6.50;3.90;;;512.00;2022.40;;;;;;5030988;28;20056;-77
2023/03/09 12:13:30;;;;;;;9.95;5.15;;;487.20;2048.00;;;;;;5044798;28;20045;-74
2023/03/09 12:16:06;;;;;;;6.95;4.97;;;487.00;2073.60;;;;;;5045405;28;20025;-74